createdAt,value
2023-05-09T00:01:36.652Z,70.50
2023-05-09T00:05:39.476Z,70.70
2023-05-09T00:09:42.373Z,70.80
2023-05-09T00:13:45.205Z,70.20
2023-05-09T00:17:48.107Z,69.60
2023-05-09T00:21:51.013Z,69.00
2023-05-09T00:25:54.169Z,68.50
2023-05-09T00:29:57.186Z,68.60
2023-05-09T00:34:00.239Z,68.60
2023-05-09T00:38:03.372Z,69.00
2023-05-09T00:42:06.227Z,69.00
2023-05-09T00:46:09.497Z,69.30
2023-05-09T00:50:12.456Z,69.40
2023-05-09T00:54:15.418Z,69.40
2023-05-09T00:58:19.509Z,69.30
2023-05-09T01:02:22.621Z,68.90
2023-05-09T01:06:28.785Z,68.40
2023-05-09T01:10:33.669Z,68.00
2023-05-09T01:15:17.729Z,67.60
2023-05-09T01:19:52.266Z,67.20
2023-05-09T01:24:41.834Z,66.70
2023-05-09T01:28:56.896Z,66.70
2023-05-09T01:33:01.575Z,66.20
2023-05-09T01:37:07.105Z,66.20
2023-05-09T01:41:12.668Z,65.90
2023-05-09T01:45:19.836Z,65.50
2023-05-09T01:49:23.914Z,65.40
2023-05-09T01:53:28.652Z,65.00
2023-05-09T01:57:32.675Z,64.90
2023-05-09T02:01:36.199Z,64.80
2023-05-09T02:05:39.890Z,64.70
2023-05-09T02:09:42.727Z,64.80
2023-05-09T02:13:45.681Z,65.20
2023-05-09T02:17:48.686Z,65.50
2023-05-09T02:21:52.697Z,65.20
2023-05-09T02:25:57.279Z,64.90
2023-05-09T02:30:04.247Z,64.60
2023-05-09T02:34:08.338Z,64.40
2023-05-09T02:38:13.336Z,64.50
2023-05-09T02:42:22.841Z,64.90
2023-05-09T02:46:26.221Z,65.30
2023-05-09T02:50:29.695Z,65.70
2023-05-09T02:54:33.116Z,66.20
2023-05-09T02:58:35.955Z,66.50
2023-05-09T03:02:40.545Z,66.90
2023-05-09T03:06:50.527Z,67.20
2023-05-09T03:10:53.625Z,67.50
2023-05-09T03:14:56.362Z,67.80
2023-05-09T03:18:59.381Z,68.30
2023-05-09T03:23:02.290Z,69.00
2023-05-09T03:27:05.645Z,69.20
2023-05-09T03:31:08.463Z,69.40
2023-05-09T03:35:11.891Z,69.50
2023-05-09T03:39:14.749Z,69.30
2023-05-09T03:43:20.890Z,68.80
2023-05-09T03:47:26.652Z,68.40
2023-05-09T03:51:32.671Z,68.00
2023-05-09T03:55:38.288Z,67.70
2023-05-09T03:59:42.040Z,67.50
2023-05-09T04:03:45.740Z,67.20
2023-05-09T04:07:52.516Z,67.20
2023-05-09T04:12:07.180Z,67.50
2023-05-09T04:16:10.034Z,67.70
2023-05-09T04:20:13.115Z,68.00
2023-05-09T04:24:17.641Z,68.30
2023-05-09T04:28:29.395Z,68.60
2023-05-09T04:32:33.604Z,69.10
2023-05-09T04:36:36.976Z,69.30
2023-05-09T04:40:40.669Z,69.40
2023-05-09T04:44:43.628Z,69.40
2023-05-09T04:48:47.360Z,69.50
2023-05-09T04:52:50.338Z,69.60
2023-05-09T04:56:57.915Z,69.80
2023-05-09T05:01:06.710Z,70.00
2023-05-09T05:05:12.040Z,70.10
2023-05-09T05:09:18.020Z,70.30
2023-05-09T05:13:22.166Z,70.30
2023-05-09T05:17:30.040Z,70.40
2023-05-09T05:21:35.721Z,70.40
2023-05-09T05:25:39.185Z,70.50
2023-05-09T05:29:44.244Z,70.60
2023-05-09T05:33:52.458Z,70.60
2023-05-09T05:37:57.246Z,70.90
2023-05-09T05:42:02.816Z,70.50
2023-05-09T05:46:06.425Z,70.30
2023-05-09T05:50:12.205Z,70.10
2023-05-09T05:54:16.207Z,70.10
2023-05-09T05:58:23.366Z,69.80
2023-05-09T06:02:29.543Z,69.70
2023-05-09T06:06:32.646Z,69.30
2023-05-09T06:10:36.155Z,68.90
2023-05-09T06:14:39.671Z,68.10
2023-05-09T06:18:42.583Z,67.80
2023-05-09T06:22:45.392Z,67.30
2023-05-09T06:26:49.724Z,66.70
2023-05-09T06:30:52.516Z,66.20
2023-05-09T06:34:55.304Z,65.90
2023-05-09T06:38:58.478Z,65.80
2023-05-09T06:43:01.294Z,65.70
2023-05-09T06:47:04.471Z,65.70
2023-05-09T06:51:08.313Z,65.30
2023-05-09T06:55:11.243Z,64.80
2023-05-09T06:59:14.090Z,64.50
2023-05-09T07:03:17.105Z,64.20
2023-05-09T07:07:19.817Z,64.40
2023-05-09T07:11:23.331Z,63.50
2023-05-09T07:15:39.699Z,63.40
2023-05-09T07:19:43.787Z,62.50
2023-05-09T07:23:46.468Z,62.00
2023-05-09T07:27:49.318Z,60.90
2023-05-09T07:32:00.957Z,60.20
2023-05-09T07:36:04.448Z,58.60
2023-05-09T07:40:08.082Z,58.10
2023-05-09T07:44:11.058Z,58.10
2023-05-09T07:48:13.920Z,57.30
2023-05-09T07:52:17.797Z,57.70
2023-05-09T07:56:21.412Z,57.60
2023-05-09T08:00:24.809Z,57.50
2023-05-09T08:04:27.847Z,57.80
2023-05-09T08:13:20.070Z,57.50
2023-05-09T08:17:25.774Z,57.50
2023-05-09T08:21:31.581Z,57.30
2023-05-09T08:25:38.292Z,57.00
2023-05-09T08:29:41.872Z,57.60
2023-05-09T08:33:46.305Z,57.40
2023-05-09T08:37:51.209Z,57.60
2023-05-09T08:41:59.453Z,57.10
2023-05-09T08:46:11.844Z,57.50
2023-05-09T08:50:42.294Z,56.50
2023-05-09T08:54:47.609Z,56.60
2023-05-09T08:58:55.816Z,56.50
2023-05-09T09:03:05.771Z,55.60
2023-05-09T09:07:36.951Z,55.20
2023-05-09T09:11:41.189Z,54.80
2023-05-09T09:15:48.235Z,54.00
2023-05-09T09:19:59.938Z,53.40
2023-05-09T09:24:04.735Z,53.50
2023-05-09T09:28:11.107Z,53.70
2023-05-09T09:32:15.571Z,53.60
2023-05-09T09:36:29.582Z,54.00
2023-05-09T09:40:34.055Z,53.40
2023-05-09T09:44:37.343Z,52.90
2023-05-09T09:48:40.811Z,53.40
2023-05-09T09:52:52.162Z,52.80
2023-05-09T09:56:56.751Z,51.90
2023-05-09T10:01:20.241Z,52.00
2023-05-09T10:05:30.551Z,51.90
2023-05-09T10:09:38.074Z,51.80
2023-05-09T10:13:46.637Z,52.10
2023-05-09T10:17:57.586Z,51.90
2023-05-09T10:22:10.577Z,51.50
2023-05-09T10:26:23.754Z,51.70
2023-05-09T10:30:36.200Z,51.50
2023-05-09T10:34:44.739Z,51.30
2023-05-09T10:38:49.186Z,52.20
2023-05-09T10:42:54.804Z,50.30
2023-05-09T10:47:00.539Z,50.00
2023-05-09T10:51:09.007Z,49.30
2023-05-09T10:55:13.043Z,48.70
2023-05-09T10:59:44.107Z,49.70
2023-05-09T11:03:57.391Z,50.10
2023-05-09T11:08:29.309Z,49.40
2023-05-09T11:12:32.629Z,50.10
2023-05-09T11:16:58.881Z,49.60
2023-05-09T11:21:10.154Z,49.80
2023-05-09T11:25:17.251Z,50.30
2023-05-09T11:29:28.399Z,49.40
2023-05-09T11:33:31.850Z,49.70
2023-05-09T11:37:45.109Z,49.30
2023-05-09T11:41:48.650Z,50.50
2023-05-09T11:45:54.225Z,50.20
2023-05-09T11:49:58.577Z,49.70
2023-05-09T11:54:02.205Z,50.50
2023-05-09T11:58:08.139Z,49.30
2023-05-09T12:02:15.738Z,49.10
2023-05-09T12:06:22.456Z,48.90
2023-05-09T12:11:08.485Z,48.50
2023-05-09T12:15:16.997Z,48.70
2023-05-09T12:19:25.728Z,47.60
2023-05-09T12:23:35.794Z,47.10
2023-05-09T12:27:41.473Z,47.70
2023-05-09T12:31:46.710Z,47.40
2023-05-09T12:36:21.766Z,47.40
2023-05-09T12:40:30.186Z,47.10
2023-05-09T12:44:40.057Z,46.50
2023-05-09T12:48:44.759Z,46.30
2023-05-09T12:53:23.333Z,46.30
2023-05-09T12:57:31.677Z,46.40
2023-05-09T13:01:37.360Z,46.00
2023-05-09T13:05:55.275Z,45.90
2023-05-09T13:10:12.623Z,45.00
2023-05-09T13:14:21.999Z,44.80
2023-05-09T13:18:28.878Z,44.70
2023-05-09T13:22:34.012Z,44.80
2023-05-09T13:26:39.942Z,44.60
2023-05-09T13:30:46.901Z,44.10
2023-05-09T13:34:52.791Z,42.70
2023-05-09T13:38:59.006Z,42.80
2023-05-09T13:43:03.798Z,43.50
2023-05-09T13:47:12.763Z,43.30
2023-05-09T13:51:20.189Z,41.90
2023-05-09T13:55:31.067Z,41.10
2023-05-09T13:59:41.694Z,40.90
2023-05-09T14:03:47.353Z,41.50
2023-05-09T14:07:52.072Z,40.30
2023-05-09T14:11:55.804Z,39.60
2023-05-09T14:16:28.729Z,39.80
2023-05-09T14:20:35.110Z,40.40
2023-05-09T14:24:39.624Z,39.70
2023-05-09T14:28:44.457Z,39.70
2023-05-09T14:32:48.664Z,38.90
2023-05-09T14:36:55.615Z,38.60
2023-05-09T14:40:59.999Z,39.40
2023-05-09T14:45:12.578Z,39.40
2023-05-09T14:49:16.561Z,42.00
2023-05-09T14:53:47.558Z,43.40
2023-05-09T14:57:51.380Z,43.50
2023-05-09T15:01:54.905Z,44.20
2023-05-09T15:06:03.953Z,43.80
2023-05-09T15:10:10.270Z,43.60
2023-05-09T15:14:17.474Z,45.10
2023-05-09T15:18:28.661Z,44.80
2023-05-09T15:22:36.621Z,45.00
2023-05-09T15:26:41.681Z,44.30
2023-05-09T15:30:46.792Z,44.80
2023-05-09T15:34:53.483Z,44.30
2023-05-09T15:38:59.884Z,44.00
2023-05-09T15:43:07.368Z,44.30
2023-05-09T15:47:15.219Z,44.20
2023-05-09T15:51:18.027Z,44.00
2023-05-09T15:55:23.803Z,44.80
2023-05-09T15:59:32.841Z,45.00
2023-05-09T16:03:36.186Z,45.80
2023-05-09T16:07:39.635Z,45.50
2023-05-09T16:11:43.162Z,45.40
2023-05-09T16:15:48.191Z,43.30
2023-05-09T16:19:56.462Z,41.60
2023-05-09T16:24:03.283Z,41.70
2023-05-09T16:28:07.318Z,42.50
2023-05-09T16:32:12.064Z,44.10
2023-05-09T16:41:12.310Z,45.90
2023-05-09T16:45:16.053Z,46.70
2023-05-09T16:49:21.524Z,48.50
2023-05-09T16:53:30.136Z,49.40
2023-05-09T16:57:34.083Z,50.20
2023-05-09T17:01:45.108Z,50.70
2023-05-09T17:05:51.261Z,51.40
2023-05-09T17:09:54.122Z,53.70
2023-05-09T17:13:57.017Z,55.70
2023-05-09T17:18:01.899Z,56.20
2023-05-09T17:22:06.901Z,57.20
2023-05-09T17:26:11.083Z,58.00
2023-05-09T17:30:22.205Z,58.80
2023-05-09T17:34:45.085Z,60.60
2023-05-09T17:38:51.091Z,61.20
2023-05-09T17:43:00.139Z,61.00
2023-05-09T17:47:07.725Z,61.50
2023-05-09T17:51:11.867Z,62.30
2023-05-09T17:55:15.296Z,62.30
2023-05-09T17:59:18.970Z,62.40
2023-05-09T18:03:32.364Z,62.60
2023-05-09T18:07:54.202Z,62.60
2023-05-09T18:12:12.831Z,63.50
2023-05-09T18:16:40.233Z,63.20
2023-05-09T18:21:08.366Z,63.90
2023-05-09T18:25:11.959Z,64.40
2023-05-09T18:29:14.912Z,64.30
2023-05-09T18:33:27.012Z,64.50
2023-05-09T18:37:29.932Z,64.80
2023-05-09T18:41:39.547Z,64.80
2023-05-09T18:45:59.634Z,65.00
2023-05-09T18:50:07.120Z,65.30
2023-05-09T18:54:10.434Z,65.60
2023-05-09T18:58:15.644Z,65.80
2023-05-09T19:02:25.863Z,65.90
2023-05-09T19:06:31.930Z,66.20
2023-05-09T19:10:37.722Z,66.50
2023-05-09T19:14:44.729Z,66.90
2023-05-09T19:18:50.966Z,67.20
2023-05-09T19:23:02.227Z,67.50
2023-05-09T19:27:06.338Z,68.10
2023-05-09T19:31:16.655Z,68.60
2023-05-09T19:35:30.727Z,68.80
2023-05-09T19:39:39.711Z,69.10
2023-05-09T19:43:50.838Z,69.50
2023-05-09T19:47:54.813Z,69.90
2023-05-09T19:52:04.446Z,69.60
2023-05-09T19:56:08.667Z,70.00
2023-05-09T20:00:14.727Z,70.00
2023-05-09T20:04:28.516Z,70.00
2023-05-09T20:08:35.206Z,69.90
2023-05-09T20:12:40.357Z,69.80
2023-05-09T20:16:44.202Z,70.10
2023-05-09T20:20:48.525Z,70.30
2023-05-09T20:24:53.925Z,70.30
2023-05-09T20:29:04.222Z,70.40
2023-05-09T20:33:08.150Z,70.40
2023-05-09T20:37:12.501Z,70.50
2023-05-09T20:41:15.567Z,70.50
2023-05-09T20:45:20.493Z,70.80
2023-05-09T20:49:27.436Z,71.10
2023-05-09T20:53:32.505Z,71.50
2023-05-09T20:57:36.690Z,71.70
2023-05-09T21:01:41.053Z,72.00
2023-05-09T21:05:45.913Z,72.30
2023-05-09T21:09:50.859Z,72.40
2023-05-09T21:13:54.201Z,72.50
2023-05-09T21:17:57.207Z,72.50
2023-05-09T21:22:00.291Z,72.40
2023-05-09T21:26:03.340Z,72.40
2023-05-09T21:30:06.974Z,72.30
2023-05-09T21:34:10.411Z,72.40
2023-05-09T21:38:13.606Z,72.40
2023-05-09T21:42:16.577Z,72.40
2023-05-09T21:46:19.480Z,72.50
2023-05-09T21:50:22.695Z,72.90
2023-05-09T21:54:25.591Z,73.30
2023-05-09T21:58:28.406Z,73.40
2023-05-09T22:02:31.842Z,73.40
2023-05-09T22:06:34.829Z,73.50
2023-05-09T22:10:37.843Z,73.50
2023-05-09T22:14:48.855Z,73.40
2023-05-09T22:18:58.899Z,73.30
2023-05-09T22:23:01.967Z,73.20
2023-05-09T22:27:04.888Z,73.20
2023-05-09T22:31:08.140Z,73.40
2023-05-09T22:35:10.930Z,73.60
2023-05-09T22:39:14.252Z,73.60
2023-05-09T22:43:17.248Z,73.60
2023-05-09T22:47:20.999Z,73.60
2023-05-09T22:51:24.051Z,73.60
2023-05-09T22:55:27.136Z,73.50
2023-05-09T22:59:29.886Z,73.40
2023-05-09T23:03:32.860Z,73.20
2023-05-09T23:07:35.797Z,73.20
2023-05-09T23:11:38.647Z,73.20
2023-05-09T23:15:41.983Z,73.30
2023-05-09T23:19:46.029Z,73.20
2023-05-09T23:23:48.844Z,73.40
2023-05-09T23:27:51.618Z,73.40
2023-05-09T23:31:54.599Z,73.40
2023-05-09T23:35:57.401Z,73.60
2023-05-09T23:40:01.044Z,73.60
2023-05-09T23:44:04.457Z,73.60
2023-05-09T23:48:07.802Z,73.70
2023-05-09T23:52:10.777Z,73.70
2023-05-09T23:56:13.531Z,73.60
